Share

Statesboro, GA (30458)

9:15 PM EDT on April 23, 2014 (GMT -0400)
Statesboro-Bulloch County (KTBR) Elev 187 ft | 32.48 °N, 81.74 °W | Change Station
Active Advisory: Flood Warning

Current weather conditions updated 20 minutes ago

Clear
Clear
64 °F
Feels Like 64 °F
N
0
Wind Variable Wind from North
Sunrise 6:48 AM
Sunset 8:02 PM
Moon Waning Crescent

Tomorrow is forecast to be Cooler than today.

Pressure 29.88 in
Visibility 10.0 miles
Clouds Clear
Dew Point 53 °F
Humidity 69%
Rainfall 0.00 in
Snow Depth Not available.
UV 0 out of 16
Pollen 8.20 out of 12
Air Quality Not available.
Flu Activity Sporadic
METAR KTBR 240055Z AUTO 00000KT 10SM CLR 18/12 A2988 RMK AO2 T01750118

More Conditions Fewer Conditions

Pressure 29.88 in
Visibility 10.0 miles
Clouds Clear
Dew Point 53 °F
Humidity 69%
Rainfall 0.00 in
Snow Depth Not available.
UV 0 out of 16
Pollen 8.20 out of 12
Air Quality Not available.
Flu Activity Sporadic
METAR KTBR 240055Z AUTO 00000KT 10SM CLR 18/12 A2988 RMK AO2 T01750118

More Conditions Fewer Conditions

10-Day Weather Forecast

Almanac

Astronomy

Apr. 23, 2014 Rise Set
Actual Time 6:48 AM EDT 8:02 PM EDT
Civil Twilight 6:23 AM EDT 8:28 PM EDT
Nautical Twilight 5:52 AM EDT 8:58 PM EDT
Astronomical Twilight 5:21 AM EDT 9:30 PM EDT
Moon 2:58 AM EDT (4/23) 2:29 PM EDT (4/23)
Length of Visible Light 14h 05m
Length of Day
13h 13m
Tomorrow will be 1m 48s longer.
Waning Crescent, 31% of the Moon is Illuminated
Today
Waning Crescent
Apr 29
New
May 6
First Quarter
May 14
Full
May 21
Last Quarter

Today's Extremes

State Highs State Lows

Community

  • Nestled In
    Nestled In
  • Stunning Sunrise
    Stunning Sunrise
  • spring flowers
    spring flowers
  • Earth Day Spectrum Ove' Blue
    Earth Day Spectrum Ove' Blue
  • BARN B&W
    BARN B&W

WunderPhotos

Upload Photos

1,704,485 photos uploaded!

Nearby

Snow Depth

Station Depth Elevation
No new snow has been reported.

Coastal Water Temperatures

Place Temperature
No Stations Reporting

Earthquake Activity

City Distance Mag. Time & Date
No recent earthquake activity has been reported nearby.
Minimum magnitude displayed is 2.5.

Nearby Weather Stations

Station Location Temp. Dew Point Humidity Wind Precip. Elev Updated Type
Hope Street, Metter, GA 65.1 °F 57 °F 74% SSW  at  0.0 mph 0.00 in / hr 211 ft 9:15 PM EDT Rapid Fire
Georgia Gold, Pembroke, GA 65.0 °F 60 °F 83% SW  at  0.0 mph 0.00 in / hr 93 ft 9:15 PM EDT Normal
Stilson-Ellabell, Brooklet, GA 67.2 °F 56 °F 67% WSW  at  0.0 mph 0.00 in / hr 95 ft 9:15 PM EDT Normal

Show More Stations Show Fewer Stations

What do you think?

We're not finished. Please let us know what you like, what you don't like, and what you are still missing.